sensor_id;sensor_type;location;lat;lon;timestamp;temperature;humidity
38458;DHT22;24239;48.058;10.486;2023-06-10T00:01:24;14.40;99.90
38458;DHT22;24239;48.058;10.486;2023-06-10T00:03:50;14.30;99.90
38458;DHT22;24239;48.058;10.486;2023-06-10T00:06:17;14.30;99.90
38458;DHT22;24239;48.058;10.486;2023-06-10T00:08:43;14.20;99.90
38458;DHT22;24239;48.058;10.486;2023-06-10T00:11:11;14.20;99.90
38458;DHT22;24239;48.058;10.486;2023-06-10T00:13:37;14.10;99.90
38458;DHT22;24239;48.058;10.486;2023-06-10T00:16:06;14.10;99.90
38458;DHT22;24239;48.058;10.486;2023-06-10T00:18:31;14.10;99.90
38458;DHT22;24239;48.058;10.486;2023-06-10T00:20:57;14.00;99.90
38458;DHT22;24239;48.058;10.486;2023-06-10T00:23:29;14.10;99.90
38458;DHT22;24239;48.058;10.486;2023-06-10T00:25:57;14.10;99.90
38458;DHT22;24239;48.058;10.486;2023-06-10T00:28:23;14.10;99.90
38458;DHT22;24239;48.058;10.486;2023-06-10T00:30:48;14.20;99.90
38458;DHT22;24239;48.058;10.486;2023-06-10T00:33:14;14.20;99.90
38458;DHT22;24239;48.058;10.486;2023-06-10T00:35:40;14.20;99.90
38458;DHT22;24239;48.058;10.486;2023-06-10T00:38:08;14.10;99.90
38458;DHT22;24239;48.058;10.486;2023-06-10T00:40:38;14.20;99.90
38458;DHT22;24239;48.058;10.486;2023-06-10T00:43:04;14.10;99.90
38458;DHT22;24239;48.058;10.486;2023-06-10T00:45:30;14.20;99.90
38458;DHT22;24239;48.058;10.486;2023-06-10T00:47:56;14.20;99.90
38458;DHT22;24239;48.058;10.486;2023-06-10T00:50:22;14.20;99.90
38458;DHT22;24239;48.058;10.486;2023-06-10T00:52:47;14.30;99.90
38458;DHT22;24239;48.058;10.486;2023-06-10T00:55:15;14.30;99.90
38458;DHT22;24239;48.058;10.486;2023-06-10T00:57:42;14.40;99.90
38458;DHT22;24239;48.058;10.486;2023-06-10T01:00:10;14.40;99.90
38458;DHT22;24239;48.058;10.486;2023-06-10T01:02:36;14.40;99.90
38458;DHT22;24239;48.058;10.486;2023-06-10T01:05:01;14.40;99.90
38458;DHT22;24239;48.058;10.486;2023-06-10T01:07:28;14.40;99.90
38458;DHT22;24239;48.058;10.486;2023-06-10T01:14:54;14.50;99.90
38458;DHT22;24239;48.058;10.486;2023-06-10T01:17:20;14.50;99.90
38458;DHT22;24239;48.058;10.486;2023-06-10T01:19:53;14.50;99.90
38458;DHT22;24239;48.058;10.486;2023-06-10T01:22:20;14.50;99.90
38458;DHT22;24239;48.058;10.486;2023-06-10T01:24:46;14.50;99.90
38458;DHT22;24239;48.058;10.486;2023-06-10T01:27:15;14.50;99.90
38458;DHT22;24239;48.058;10.486;2023-06-10T01:29:50;14.50;99.90
38458;DHT22;24239;48.058;10.486;2023-06-10T01:34:52;14.30;99.90
38458;DHT22;24239;48.058;10.486;2023-06-10T01:37:18;14.30;99.90
38458;DHT22;24239;48.058;10.486;2023-06-10T01:39:45;14.20;99.90
38458;DHT22;24239;48.058;10.486;2023-06-10T01:42:11;14.20;99.90
38458;DHT22;24239;48.058;10.486;2023-06-10T01:44:38;14.20;99.90
38458;DHT22;24239;48.058;10.486;2023-06-10T01:47:04;14.20;99.90
38458;DHT22;24239;48.058;10.486;2023-06-10T01:49:29;14.10;99.90
38458;DHT22;24239;48.058;10.486;2023-06-10T01:51:55;14.10;99.90
38458;DHT22;24239;48.058;10.486;2023-06-10T01:54:21;14.00;99.90
38458;DHT22;24239;48.058;10.486;2023-06-10T01:56:47;14.00;99.90
38458;DHT22;24239;48.058;10.486;2023-06-10T01:59:12;14.10;99.90
38458;DHT22;24239;48.058;10.486;2023-06-10T02:01:38;14.10;99.90
38458;DHT22;24239;48.058;10.486;2023-06-10T02:04:03;14.10;99.90
38458;DHT22;24239;48.058;10.486;2023-06-10T02:06:29;14.00;99.90
38458;DHT22;24239;48.058;10.486;2023-06-10T02:08:54;14.00;99.90
38458;DHT22;24239;48.058;10.486;2023-06-10T02:11:20;13.90;99.90
38458;DHT22;24239;48.058;10.486;2023-06-10T02:13:45;14.00;99.90
38458;DHT22;24239;48.058;10.486;2023-06-10T02:16:11;13.90;99.90
38458;DHT22;24239;48.058;10.486;2023-06-10T02:18:38;13.90;99.90
38458;DHT22;24239;48.058;10.486;2023-06-10T02:21:06;13.90;99.90
38458;DHT22;24239;48.058;10.486;2023-06-10T02:23:32;13.90;99.90
38458;DHT22;24239;48.058;10.486;2023-06-10T02:26:00;13.90;99.90
38458;DHT22;24239;48.058;10.486;2023-06-10T02:28:26;13.90;99.90
38458;DHT22;24239;48.058;10.486;2023-06-10T02:30:51;14.00;99.90
38458;DHT22;24239;48.058;10.486;2023-06-10T02:33:17;14.10;99.90
38458;DHT22;24239;48.058;10.486;2023-06-10T02:35:43;14.10;99.90
38458;DHT22;24239;48.058;10.486;2023-06-10T02:38:09;14.00;99.90
38458;DHT22;24239;48.058;10.486;2023-06-10T02:40:38;14.00;99.90
38458;DHT22;24239;48.058;10.486;2023-06-10T02:43:05;13.90;99.90
38458;DHT22;24239;48.058;10.486;2023-06-10T02:45:31;13.90;99.90
38458;DHT22;24239;48.058;10.486;2023-06-10T02:47:57;13.80;99.90
38458;DHT22;24239;48.058;10.486;2023-06-10T02:50:23;13.70;99.90
38458;DHT22;24239;48.058;10.486;2023-06-10T02:52:52;13.70;99.90
38458;DHT22;24239;48.058;10.486;2023-06-10T02:55:20;13.70;99.90
38458;DHT22;24239;48.058;10.486;2023-06-10T02:57:48;13.60;99.90
38458;DHT22;24239;48.058;10.486;2023-06-10T03:00:14;13.70;99.90
38458;DHT22;24239;48.058;10.486;2023-06-10T03:02:41;13.80;99.90
38458;DHT22;24239;48.058;10.486;2023-06-10T03:05:09;13.70;99.90
38458;DHT22;24239;48.058;10.486;2023-06-10T03:07:39;13.70;99.90
38458;DHT22;24239;48.058;10.486;2023-06-10T03:10:05;13.70;99.90
38458;DHT22;24239;48.058;10.486;2023-06-10T03:12:35;13.50;99.90
38458;DHT22;24239;48.058;10.486;2023-06-10T03:15:01;13.50;99.90
38458;DHT22;24239;48.058;10.486;2023-06-10T03:17:30;13.50;99.90
38458;DHT22;24239;48.058;10.486;2023-06-10T03:19:57;13.30;99.90
38458;DHT22;24239;48.058;10.486;2023-06-10T03:22:26;13.30;99.90
38458;DHT22;24239;48.058;10.486;2023-06-10T03:24:53;13.40;99.90
38458;DHT22;24239;48.058;10.486;2023-06-10T03:27:22;13.40;99.90
38458;DHT22;24239;48.058;10.486;2023-06-10T03:29:51;13.40;99.90
38458;DHT22;24239;48.058;10.486;2023-06-10T03:32:18;13.50;99.90
38458;DHT22;24239;48.058;10.486;2023-06-10T03:34:44;13.40;99.90
38458;DHT22;24239;48.058;10.486;2023-06-10T03:37:15;13.30;99.90
38458;DHT22;24239;48.058;10.486;2023-06-10T03:39:43;13.40;99.90
38458;DHT22;24239;48.058;10.486;2023-06-10T03:42:11;13.40;99.90
38458;DHT22;24239;48.058;10.486;2023-06-10T03:44:37;13.40;99.90
38458;DHT22;24239;48.058;10.486;2023-06-10T03:47:05;13.30;99.90
38458;DHT22;24239;48.058;10.486;2023-06-10T03:49:31;13.30;99.90
38458;DHT22;24239;48.058;10.486;2023-06-10T03:51:56;13.30;99.90
38458;DHT22;24239;48.058;10.486;2023-06-10T03:54:25;13.30;99.90
38458;DHT22;24239;48.058;10.486;2023-06-10T03:56:55;13.40;99.90
38458;DHT22;24239;48.058;10.486;2023-06-10T03:59:24;13.40;99.90
38458;DHT22;24239;48.058;10.486;2023-06-10T04:01:51;13.60;99.90
38458;DHT22;24239;48.058;10.486;2023-06-10T04:04:17;13.90;99.90
38458;DHT22;24239;48.058;10.486;2023-06-10T04:06:43;14.20;99.90
38458;DHT22;24239;48.058;10.486;2023-06-10T04:09:12;14.80;99.90
38458;DHT22;24239;48.058;10.486;2023-06-10T04:11:39;15.40;99.90
38458;DHT22;24239;48.058;10.486;2023-06-10T04:14:06;16.10;99.90
38458;DHT22;24239;48.058;10.486;2023-06-10T04:16:34;16.70;99.90
38458;DHT22;24239;48.058;10.486;2023-06-10T04:19:01;17.20;99.90
38458;DHT22;24239;48.058;10.486;2023-06-10T04:21:28;17.80;99.90
38458;DHT22;24239;48.058;10.486;2023-06-10T04:23:56;18.40;99.90
38458;DHT22;24239;48.058;10.486;2023-06-10T04:26:23;18.80;99.90
38458;DHT22;24239;48.058;10.486;2023-06-10T04:28:50;19.30;99.90
38458;DHT22;24239;48.058;10.486;2023-06-10T04:31:17;19.50;99.90
38458;DHT22;24239;48.058;10.486;2023-06-10T04:33:44;19.60;99.90
38458;DHT22;24239;48.058;10.486;2023-06-10T04:36:11;19.80;99.90
38458;DHT22;24239;48.058;10.486;2023-06-10T04:38:39;20.10;99.90
38458;DHT22;24239;48.058;10.486;2023-06-10T04:41:08;20.20;99.90
38458;DHT22;24239;48.058;10.486;2023-06-10T04:43:37;20.30;99.90
38458;DHT22;24239;48.058;10.486;2023-06-10T04:46:04;20.80;99.90
38458;DHT22;24239;48.058;10.486;2023-06-10T04:48:29;21.10;99.90
38458;DHT22;24239;48.058;10.486;2023-06-10T04:50:56;21.00;99.90
38458;DHT22;24239;48.058;10.486;2023-06-10T04:53:23;21.20;99.90
38458;DHT22;24239;48.058;10.486;2023-06-10T04:55:52;21.40;99.90
38458;DHT22;24239;48.058;10.486;2023-06-10T04:58:19;21.50;99.90
38458;DHT22;24239;48.058;10.486;2023-06-10T05:00:46;21.60;99.90
38458;DHT22;24239;48.058;10.486;2023-06-10T05:03:14;21.50;99.90
38458;DHT22;24239;48.058;10.486;2023-06-10T05:05:47;21.50;99.90
38458;DHT22;24239;48.058;10.486;2023-06-10T05:08:14;21.10;99.90
38458;DHT22;24239;48.058;10.486;2023-06-10T05:10:41;20.90;99.90
38458;DHT22;24239;48.058;10.486;2023-06-10T05:13:07;21.00;99.90
38458;DHT22;24239;48.058;10.486;2023-06-10T05:15:33;21.00;99.90
38458;DHT22;24239;48.058;10.486;2023-06-10T05:18:03;21.20;99.90
38458;DHT22;24239;48.058;10.486;2023-06-10T05:20:29;21.10;99.90
38458;DHT22;24239;48.058;10.486;2023-06-10T05:22:55;20.60;99.90
38458;DHT22;24239;48.058;10.486;2023-06-10T05:25:21;20.60;99.90
38458;DHT22;24239;48.058;10.486;2023-06-10T05:27:49;20.60;99.90
38458;DHT22;24239;48.058;10.486;2023-06-10T05:30:16;20.30;99.90
38458;DHT22;24239;48.058;10.486;2023-06-10T05:32:45;20.30;99.90
38458;DHT22;24239;48.058;10.486;2023-06-10T05:35:12;20.30;99.90
38458;DHT22;24239;48.058;10.486;2023-06-10T05:37:39;20.30;99.90
38458;DHT22;24239;48.058;10.486;2023-06-10T05:40:05;20.30;99.90
38458;DHT22;24239;48.058;10.486;2023-06-10T05:42:33;20.00;99.90
38458;DHT22;24239;48.058;10.486;2023-06-10T05:44:59;19.90;99.90
38458;DHT22;24239;48.058;10.486;2023-06-10T05:47:26;20.10;99.90
38458;DHT22;24239;48.058;10.486;2023-06-10T05:49:54;20.50;99.90
38458;DHT22;24239;48.058;10.486;2023-06-10T05:52:22;20.80;99.90
38458;DHT22;24239;48.058;10.486;2023-06-10T05:54:51;20.80;99.90
38458;DHT22;24239;48.058;10.486;2023-06-10T05:57:16;20.50;99.90
38458;DHT22;24239;48.058;10.486;2023-06-10T05:59:45;20.20;99.90
38458;DHT22;24239;48.058;10.486;2023-06-10T06:02:11;19.60;99.90
38458;DHT22;24239;48.058;10.486;2023-06-10T06:04:39;19.60;99.90
38458;DHT22;24239;48.058;10.486;2023-06-10T06:07:07;19.20;99.90
38458;DHT22;24239;48.058;10.486;2023-06-10T06:09:33;19.40;99.90
38458;DHT22;24239;48.058;10.486;2023-06-10T06:11:59;19.50;99.90
38458;DHT22;24239;48.058;10.486;2023-06-10T06:14:30;19.50;99.90
38458;DHT22;24239;48.058;10.486;2023-06-10T06:16:58;19.60;99.90
38458;DHT22;24239;48.058;10.486;2023-06-10T06:19:26;19.60;99.90
38458;DHT22;24239;48.058;10.486;2023-06-10T06:21:54;19.50;99.90
38458;DHT22;24239;48.058;10.486;2023-06-10T06:24:22;19.50;99.90
38458;DHT22;24239;48.058;10.486;2023-06-10T06:26:51;19.30;99.90
38458;DHT22;24239;48.058;10.486;2023-06-10T06:29:23;19.20;99.90
38458;DHT22;24239;48.058;10.486;2023-06-10T06:31:48;18.90;99.90
38458;DHT22;24239;48.058;10.486;2023-06-10T06:34:17;18.80;99.90
38458;DHT22;24239;48.058;10.486;2023-06-10T06:36:44;18.60;99.90
38458;DHT22;24239;48.058;10.486;2023-06-10T06:39:10;18.50;99.90
38458;DHT22;24239;48.058;10.486;2023-06-10T06:41:38;18.50;99.90
38458;DHT22;24239;48.058;10.486;2023-06-10T06:44:07;18.50;99.90
38458;DHT22;24239;48.058;10.486;2023-06-10T06:46:35;18.40;99.90
38458;DHT22;24239;48.058;10.486;2023-06-10T06:49:02;18.60;99.90
38458;DHT22;24239;48.058;10.486;2023-06-10T06:51:29;18.70;99.90
38458;DHT22;24239;48.058;10.486;2023-06-10T06:53:58;18.80;99.90
38458;DHT22;24239;48.058;10.486;2023-06-10T06:56:25;18.80;99.90
38458;DHT22;24239;48.058;10.486;2023-06-10T06:58:53;19.00;99.90
38458;DHT22;24239;48.058;10.486;2023-06-10T07:01:21;18.90;99.90
38458;DHT22;24239;48.058;10.486;2023-06-10T07:03:49;19.10;99.90
38458;DHT22;24239;48.058;10.486;2023-06-10T07:06:16;19.20;99.90
38458;DHT22;24239;48.058;10.486;2023-06-10T07:08:44;19.20;99.90
38458;DHT22;24239;48.058;10.486;2023-06-10T07:11:11;19.30;99.90
38458;DHT22;24239;48.058;10.486;2023-06-10T07:13:40;19.30;99.90
38458;DHT22;24239;48.058;10.486;2023-06-10T07:16:08;19.10;99.90
38458;DHT22;24239;48.058;10.486;2023-06-10T07:18:37;19.20;99.90
38458;DHT22;24239;48.058;10.486;2023-06-10T07:21:04;19.20;99.90
38458;DHT22;24239;48.058;10.486;2023-06-10T07:23:31;19.20;99.90
38458;DHT22;24239;48.058;10.486;2023-06-10T07:26:01;19.20;99.90
38458;DHT22;24239;48.058;10.486;2023-06-10T07:28:27;19.20;99.90
38458;DHT22;24239;48.058;10.486;2023-06-10T07:30:53;19.30;99.90
38458;DHT22;24239;48.058;10.486;2023-06-10T07:33:21;19.30;99.90
38458;DHT22;24239;48.058;10.486;2023-06-10T07:35:49;19.40;99.90
38458;DHT22;24239;48.058;10.486;2023-06-10T07:38:19;19.40;99.90
38458;DHT22;24239;48.058;10.486;2023-06-10T07:40:49;19.50;99.90
38458;DHT22;24239;48.058;10.486;2023-06-10T07:43:15;19.50;99.90
38458;DHT22;24239;48.058;10.486;2023-06-10T07:45:41;19.60;99.90
38458;DHT22;24239;48.058;10.486;2023-06-10T07:48:09;19.70;99.90
38458;DHT22;24239;48.058;10.486;2023-06-10T07:50:37;19.80;99.90
38458;DHT22;24239;48.058;10.486;2023-06-10T07:53:04;19.70;99.90
38458;DHT22;24239;48.058;10.486;2023-06-10T07:55:30;19.80;99.90
38458;DHT22;24239;48.058;10.486;2023-06-10T07:57:57;19.80;99.90
38458;DHT22;24239;48.058;10.486;2023-06-10T08:00:27;19.80;99.90
38458;DHT22;24239;48.058;10.486;2023-06-10T08:02:56;19.80;99.90
38458;DHT22;24239;48.058;10.486;2023-06-10T08:05:25;19.80;99.90
38458;DHT22;24239;48.058;10.486;2023-06-10T08:07:53;19.90;99.90
38458;DHT22;24239;48.058;10.486;2023-06-10T08:10:20;20.00;99.90
38458;DHT22;24239;48.058;10.486;2023-06-10T08:12:47;20.10;99.90
38458;DHT22;24239;48.058;10.486;2023-06-10T08:15:13;20.10;99.90
38458;DHT22;24239;48.058;10.486;2023-06-10T08:17:39;20.10;99.90
38458;DHT22;24239;48.058;10.486;2023-06-10T08:20:09;20.20;99.90
38458;DHT22;24239;48.058;10.486;2023-06-10T08:22:35;20.40;99.90
38458;DHT22;24239;48.058;10.486;2023-06-10T08:25:02;20.50;99.90
38458;DHT22;24239;48.058;10.486;2023-06-10T08:27:29;20.40;99.90
38458;DHT22;24239;48.058;10.486;2023-06-10T08:29:55;20.40;99.90
38458;DHT22;24239;48.058;10.486;2023-06-10T08:32:21;20.50;99.90
38458;DHT22;24239;48.058;10.486;2023-06-10T08:34:48;20.40;99.90
38458;DHT22;24239;48.058;10.486;2023-06-10T08:37:14;20.40;99.90
38458;DHT22;24239;48.058;10.486;2023-06-10T08:39:42;20.50;99.90
38458;DHT22;24239;48.058;10.486;2023-06-10T08:42:22;20.60;99.90
38458;DHT22;24239;48.058;10.486;2023-06-10T08:44:51;20.80;99.90
38458;DHT22;24239;48.058;10.486;2023-06-10T08:47:22;20.80;99.90
38458;DHT22;24239;48.058;10.486;2023-06-10T08:49:51;20.80;99.90
38458;DHT22;24239;48.058;10.486;2023-06-10T08:52:21;21.00;99.90
38458;DHT22;24239;48.058;10.486;2023-06-10T08:54:54;20.90;99.90
38458;DHT22;24239;48.058;10.486;2023-06-10T08:57:24;20.90;99.90
38458;DHT22;24239;48.058;10.486;2023-06-10T08:59:53;21.10;99.90
38458;DHT22;24239;48.058;10.486;2023-06-10T09:02:21;21.20;99.90
38458;DHT22;24239;48.058;10.486;2023-06-10T09:04:50;21.30;99.90
38458;DHT22;24239;48.058;10.486;2023-06-10T09:07:18;21.30;99.90
38458;DHT22;24239;48.058;10.486;2023-06-10T09:09:46;21.40;99.90
38458;DHT22;24239;48.058;10.486;2023-06-10T09:12:15;21.30;99.90
38458;DHT22;24239;48.058;10.486;2023-06-10T09:14:42;21.30;99.90
38458;DHT22;24239;48.058;10.486;2023-06-10T09:17:10;21.40;99.90
38458;DHT22;24239;48.058;10.486;2023-06-10T09:19:39;21.50;99.90
38458;DHT22;24239;48.058;10.486;2023-06-10T09:22:12;21.50;99.90
38458;DHT22;24239;48.058;10.486;2023-06-10T09:24:41;21.70;99.90
38458;DHT22;24239;48.058;10.486;2023-06-10T09:27:10;21.90;99.90
38458;DHT22;24239;48.058;10.486;2023-06-10T09:32:14;21.70;99.90
38458;DHT22;24239;48.058;10.486;2023-06-10T09:34:40;21.60;99.90
38458;DHT22;24239;48.058;10.486;2023-06-10T09:37:08;21.50;99.90
38458;DHT22;24239;48.058;10.486;2023-06-10T09:39:40;21.50;99.90
38458;DHT22;24239;48.058;10.486;2023-06-10T09:42:16;21.50;99.90
38458;DHT22;24239;48.058;10.486;2023-06-10T09:44:52;21.60;99.90
38458;DHT22;24239;48.058;10.486;2023-06-10T09:47:21;21.90;99.90
38458;DHT22;24239;48.058;10.486;2023-06-10T09:49:48;22.20;99.90
38458;DHT22;24239;48.058;10.486;2023-06-10T09:52:21;22.40;99.90
38458;DHT22;24239;48.058;10.486;2023-06-10T09:54:53;22.60;99.90
38458;DHT22;24239;48.058;10.486;2023-06-10T09:57:21;22.80;99.90
38458;DHT22;24239;48.058;10.486;2023-06-10T09:59:53;22.80;99.90
38458;DHT22;24239;48.058;10.486;2023-06-10T10:02:21;22.70;99.90
38458;DHT22;24239;48.058;10.486;2023-06-10T10:04:49;22.80;99.80
38458;DHT22;24239;48.058;10.486;2023-06-10T10:07:17;22.90;99.90
38458;DHT22;24239;48.058;10.486;2023-06-10T10:09:44;23.10;99.90
38458;DHT22;24239;48.058;10.486;2023-06-10T10:12:12;23.10;98.80
38458;DHT22;24239;48.058;10.486;2023-06-10T10:14:45;22.90;99.00
38458;DHT22;24239;48.058;10.486;2023-06-10T10:17:14;23.20;99.40
38458;DHT22;24239;48.058;10.486;2023-06-10T10:19:46;23.10;99.10
38458;DHT22;24239;48.058;10.486;2023-06-10T10:25:49;22.40;99.40
38458;DHT22;24239;48.058;10.486;2023-06-10T10:28:02;22.20;99.60
38458;DHT22;24239;48.058;10.486;2023-06-10T10:30:34;22.20;99.90
38458;DHT22;24239;48.058;10.486;2023-06-10T10:33:04;22.40;99.90
38458;DHT22;24239;48.058;10.486;2023-06-10T10:35:32;22.70;99.30
38458;DHT22;24239;48.058;10.486;2023-06-10T10:38:02;23.00;99.20
38458;DHT22;24239;48.058;10.486;2023-06-10T10:40:30;23.00;98.30
38458;DHT22;24239;48.058;10.486;2023-06-10T10:42:59;23.00;97.80
38458;DHT22;24239;48.058;10.486;2023-06-10T10:45:29;23.00;98.20
38458;DHT22;24239;48.058;10.486;2023-06-10T10:47:57;23.10;98.00
38458;DHT22;24239;48.058;10.486;2023-06-10T10:50:23;23.20;97.90
38458;DHT22;24239;48.058;10.486;2023-06-10T10:55:18;23.50;97.80
38458;DHT22;24239;48.058;10.486;2023-06-10T10:57:44;23.70;97.70
38458;DHT22;24239;48.058;10.486;2023-06-10T11:00:10;23.90;97.60
38458;DHT22;24239;48.058;10.486;2023-06-10T11:05:04;24.00;96.60
38458;DHT22;24239;48.058;10.486;2023-06-10T11:07:30;24.00;96.20
38458;DHT22;24239;48.058;10.486;2023-06-10T11:10:00;24.10;96.40
38458;DHT22;24239;48.058;10.486;2023-06-10T11:15:09;23.60;95.90
38458;DHT22;24239;48.058;10.486;2023-06-10T11:18:05;23.50;95.80
38458;DHT22;24239;48.058;10.486;2023-06-10T11:26:43;23.90;96.60
38458;DHT22;24239;48.058;10.486;2023-06-10T11:28:41;24.10;95.60
38458;DHT22;24239;48.058;10.486;2023-06-10T11:31:18;24.10;95.30
38458;DHT22;24239;48.058;10.486;2023-06-10T11:36:24;24.30;95.20
38458;DHT22;24239;48.058;10.486;2023-06-10T11:39:12;24.20;95.00
38458;DHT22;24239;48.058;10.486;2023-06-10T11:41:38;24.20;95.10
38458;DHT22;24239;48.058;10.486;2023-06-10T11:44:13;23.80;94.90
38458;DHT22;24239;48.058;10.486;2023-06-10T11:46:41;23.80;95.40
38458;DHT22;24239;48.058;10.486;2023-06-10T11:49:12;23.80;95.50
38458;DHT22;24239;48.058;10.486;2023-06-10T11:51:38;23.80;94.90
38458;DHT22;24239;48.058;10.486;2023-06-10T11:54:10;24.10;95.80
38458;DHT22;24239;48.058;10.486;2023-06-10T11:56:40;24.30;95.60
38458;DHT22;24239;48.058;10.486;2023-06-10T11:59:07;24.30;94.30
38458;DHT22;24239;48.058;10.486;2023-06-10T12:01:36;23.90;94.10
38458;DHT22;24239;48.058;10.486;2023-06-10T12:06:52;24.10;95.20
38458;DHT22;24239;48.058;10.486;2023-06-10T12:09:24;24.10;94.50
38458;DHT22;24239;48.058;10.486;2023-06-10T12:17:23;24.60;93.40
38458;DHT22;24239;48.058;10.486;2023-06-10T12:19:50;24.50;93.30
38458;DHT22;24239;48.058;10.486;2023-06-10T12:22:16;24.70;94.10
38458;DHT22;24239;48.058;10.486;2023-06-10T12:24:45;24.80;93.40
38458;DHT22;24239;48.058;10.486;2023-06-10T12:27:27;24.90;94.40
38458;DHT22;24239;48.058;10.486;2023-06-10T12:29:55;24.90;93.20
38458;DHT22;24239;48.058;10.486;2023-06-10T12:32:22;24.90;93.10
38458;DHT22;24239;48.058;10.486;2023-06-10T12:35:03;24.70;92.90
38458;DHT22;24239;48.058;10.486;2023-06-10T12:37:29;24.80;92.40
38458;DHT22;24239;48.058;10.486;2023-06-10T12:40:01;25.00;92.00
38458;DHT22;24239;48.058;10.486;2023-06-10T12:42:32;25.00;91.30
38458;DHT22;24239;48.058;10.486;2023-06-10T12:45:00;25.00;92.20
38458;DHT22;24239;48.058;10.486;2023-06-10T12:47:33;25.10;92.70
38458;DHT22;24239;48.058;10.486;2023-06-10T12:50:01;25.10;94.00
38458;DHT22;24239;48.058;10.486;2023-06-10T12:52:31;24.90;93.90
38458;DHT22;24239;48.058;10.486;2023-06-10T12:54:58;24.50;93.30
38458;DHT22;24239;48.058;10.486;2023-06-10T12:57:24;24.50;94.40
38458;DHT22;24239;48.058;10.486;2023-06-10T12:59:51;24.40;94.10
38458;DHT22;24239;48.058;10.486;2023-06-10T13:02:28;24.40;94.20
38458;DHT22;24239;48.058;10.486;2023-06-10T13:04:55;24.60;94.40
38458;DHT22;24239;48.058;10.486;2023-06-10T13:07:22;24.80;93.90
38458;DHT22;24239;48.058;10.486;2023-06-10T13:09:49;24.90;94.30
38458;DHT22;24239;48.058;10.486;2023-06-10T13:12:15;25.00;93.90
38458;DHT22;24239;48.058;10.486;2023-06-10T13:14:41;24.90;93.60
38458;DHT22;24239;48.058;10.486;2023-06-10T13:17:07;24.80;94.00
38458;DHT22;24239;48.058;10.486;2023-06-10T13:19:33;24.60;93.80
38458;DHT22;24239;48.058;10.486;2023-06-10T13:22:01;24.40;94.70
38458;DHT22;24239;48.058;10.486;2023-06-10T13:24:30;24.20;94.80
38458;DHT22;24239;48.058;10.486;2023-06-10T13:26:58;24.10;95.00
38458;DHT22;24239;48.058;10.486;2023-06-10T13:29:25;23.70;95.00
38458;DHT22;24239;48.058;10.486;2023-06-10T13:31:53;23.90;95.30
38458;DHT22;24239;48.058;10.486;2023-06-10T13:34:21;24.10;95.40
38458;DHT22;24239;48.058;10.486;2023-06-10T13:36:49;24.20;95.80
38458;DHT22;24239;48.058;10.486;2023-06-10T13:39:18;24.40;95.20
38458;DHT22;24239;48.058;10.486;2023-06-10T13:41:44;24.40;94.70
38458;DHT22;24239;48.058;10.486;2023-06-10T13:44:09;24.50;94.70
38458;DHT22;24239;48.058;10.486;2023-06-10T13:46:37;24.50;94.30
38458;DHT22;24239;48.058;10.486;2023-06-10T13:49:06;24.60;94.50
38458;DHT22;24239;48.058;10.486;2023-06-10T13:51:35;24.70;93.70
38458;DHT22;24239;48.058;10.486;2023-06-10T13:54:01;24.50;94.30
38458;DHT22;24239;48.058;10.486;2023-06-10T13:56:29;24.70;94.40
38458;DHT22;24239;48.058;10.486;2023-06-10T13:58:55;24.80;93.80
38458;DHT22;24239;48.058;10.486;2023-06-10T14:01:23;25.00;94.00
38458;DHT22;24239;48.058;10.486;2023-06-10T14:03:51;25.10;93.20
38458;DHT22;24239;48.058;10.486;2023-06-10T14:06:19;25.20;93.80
38458;DHT22;24239;48.058;10.486;2023-06-10T14:08:46;25.10;93.30
38458;DHT22;24239;48.058;10.486;2023-06-10T14:11:13;24.90;93.30
38458;DHT22;24239;48.058;10.486;2023-06-10T14:13:41;24.60;94.10
38458;DHT22;24239;48.058;10.486;2023-06-10T14:16:08;24.20;94.90
38458;DHT22;24239;48.058;10.486;2023-06-10T14:18:34;24.30;94.90
38458;DHT22;24239;48.058;10.486;2023-06-10T14:21:00;24.30;94.40
38458;DHT22;24239;48.058;10.486;2023-06-10T14:23:27;24.50;95.10
38458;DHT22;24239;48.058;10.486;2023-06-10T14:25:54;24.40;94.50
38458;DHT22;24239;48.058;10.486;2023-06-10T14:28:23;24.20;94.40
38458;DHT22;24239;48.058;10.486;2023-06-10T14:30:51;24.20;94.40
38458;DHT22;24239;48.058;10.486;2023-06-10T14:33:20;24.30;94.40
38458;DHT22;24239;48.058;10.486;2023-06-10T14:35:49;24.30;94.60
38458;DHT22;24239;48.058;10.486;2023-06-10T14:38:18;24.50;94.70
38458;DHT22;24239;48.058;10.486;2023-06-10T14:40:45;24.50;94.50
38458;DHT22;24239;48.058;10.486;2023-06-10T14:43:13;24.90;94.50
38458;DHT22;24239;48.058;10.486;2023-06-10T14:45:41;25.00;93.90
38458;DHT22;24239;48.058;10.486;2023-06-10T14:48:08;24.90;93.80
38458;DHT22;24239;48.058;10.486;2023-06-10T14:50:35;24.60;94.00
38458;DHT22;24239;48.058;10.486;2023-06-10T14:53:02;24.50;94.20
38458;DHT22;24239;48.058;10.486;2023-06-10T14:55:30;24.60;94.00
38458;DHT22;24239;48.058;10.486;2023-06-10T14:57:59;24.70;93.90
38458;DHT22;24239;48.058;10.486;2023-06-10T15:00:28;25.00;93.70
38458;DHT22;24239;48.058;10.486;2023-06-10T15:02:56;25.00;93.20
38458;DHT22;24239;48.058;10.486;2023-06-10T15:05:24;25.20;93.60
38458;DHT22;24239;48.058;10.486;2023-06-10T15:07:51;25.10;92.90
38458;DHT22;24239;48.058;10.486;2023-06-10T15:10:18;25.00;93.00
38458;DHT22;24239;48.058;10.486;2023-06-10T15:12:44;24.70;93.50
38458;DHT22;24239;48.058;10.486;2023-06-10T15:15:12;24.80;93.90
38458;DHT22;24239;48.058;10.486;2023-06-10T15:17:38;25.10;93.90
38458;DHT22;24239;48.058;10.486;2023-06-10T15:20:06;25.30;93.10
38458;DHT22;24239;48.058;10.486;2023-06-10T15:22:36;25.50;93.40
38458;DHT22;24239;48.058;10.486;2023-06-10T15:25:04;25.50;93.60
38458;DHT22;24239;48.058;10.486;2023-06-10T15:27:33;25.40;93.10
38458;DHT22;24239;48.058;10.486;2023-06-10T15:30:02;25.10;93.00
38458;DHT22;24239;48.058;10.486;2023-06-10T15:32:28;24.80;93.10
38458;DHT22;24239;48.058;10.486;2023-06-10T15:34:56;24.60;93.60
38458;DHT22;24239;48.058;10.486;2023-06-10T15:37:24;24.50;93.90
38458;DHT22;24239;48.058;10.486;2023-06-10T15:39:53;24.70;93.80
38458;DHT22;24239;48.058;10.486;2023-06-10T15:42:20;25.10;93.60
38458;DHT22;24239;48.058;10.486;2023-06-10T15:44:51;25.20;93.10
38458;DHT22;24239;48.058;10.486;2023-06-10T15:47:20;25.30;93.60
38458;DHT22;24239;48.058;10.486;2023-06-10T15:49:52;25.10;93.50
38458;DHT22;24239;48.058;10.486;2023-06-10T15:52:20;25.20;93.50
38458;DHT22;24239;48.058;10.486;2023-06-10T15:54:47;25.20;93.20
38458;DHT22;24239;48.058;10.486;2023-06-10T15:57:14;25.00;93.40